Time;durP1;ratioP1;P1;durP2;ratioP2;P2;SDS_P1;SDS_P2;PMS_P1;PMS_P2;Temp;Humidity;BMP_temperature;BMP_pressure;BME280_temperature;BME280_humidity;BME280_pressure;Samples;Min_cycle;Max_cycle;Signal;HPM_P1;HPM_P2
2023/04/30 00:01:49;;;;;;;4.43;4.03;;;;;;;12.14;100.00;96467.06;5012997;28;101836;-62
2023/04/30 00:04:28;;;;;;;4.30;3.90;;;;;;;12.10;100.00;96468.69;5011660;28;105570;-62
2023/04/30 00:06:57;;;;;;;4.53;4.13;;;;;;;12.06;100.00;96468.38;5012486;28;103159;-62
2023/04/30 00:09:24;;;;;;;4.50;4.10;;;;;;;12.13;100.00;96468.97;5016422;28;101879;-63
2023/04/30 00:11:51;;;;;;;5.00;4.60;;;;;;;12.14;100.00;96477.75;5031702;27;102886;-62
2023/04/30 00:14:25;;;;;;;4.00;3.70;;;;;;;12.11;100.00;96476.38;5015418;28;101846;-63
2023/04/30 00:16:52;;;;;;;4.30;4.00;;;;;;;12.05;100.00;96474.75;5012926;28;102331;-62
2023/04/30 00:19:19;;;;;;;4.43;4.13;;;;;;;12.05;100.00;96473.97;5015137;28;102669;-62
2023/04/30 00:21:46;;;;;;;4.80;4.40;;;;;;;12.15;100.00;96471.38;5013215;28;101933;-62
2023/04/30 00:24:16;;;;;;;4.13;3.73;;;;;;;12.18;100.00;96477.00;5011866;28;103691;-63
2023/04/30 00:26:43;;;;;;;4.67;3.70;;;;;;;12.20;100.00;96466.03;5010422;28;105748;-63
2023/04/30 00:29:11;;;;;;;4.40;4.00;;;;;;;12.17;100.00;96467.38;5012611;28;101800;-62
2023/04/30 00:31:38;;;;;;;4.03;3.67;;;;;;;12.19;100.00;96467.09;5030765;28;104919;-62
2023/04/30 00:37:51;;;;;;;4.10;3.80;;;;;;;12.05;100.00;96461.44;5028909;28;101944;-62
2023/04/30 00:40:20;;;;;;;4.33;3.93;;;;;;;12.08;100.00;96465.44;5028505;28;105086;-62
2023/04/30 00:42:47;;;;;;;4.80;4.40;;;;;;;12.02;100.00;96461.97;5030632;28;101864;-62
2023/04/30 00:45:20;;;;;;;4.37;3.97;;;;;;;12.06;100.00;96473.72;5031104;28;105689;-62
2023/04/30 00:47:47;;;;;;;4.27;3.87;;;;;;;12.07;100.00;96464.66;5029684;28;103959;-62
2023/04/30 00:50:15;;;;;;;5.27;4.80;;;;;;;12.10;100.00;96468.69;5030351;28;102070;-62
2023/04/30 00:52:43;;;;;;;4.90;4.47;;;;;;;12.08;100.00;96470.78;5030687;28;105826;-64
2023/04/30 00:55:32;;;;;;;4.93;4.40;;;;;;;11.92;100.00;96472.53;5029570;28;105198;-62
2023/04/30 00:58:00;;;;;;;4.80;4.40;;;;;;;11.87;100.00;96474.34;5034027;28;101913;-63
2023/04/30 01:00:27;;;;;;;4.43;4.07;;;;;;;11.78;100.00;96479.38;5014101;28;105769;-62
2023/04/30 01:02:56;;;;;;;5.77;5.27;;;;;;;11.76;100.00;96470.84;5010715;28;101924;-62
2023/04/30 01:05:23;;;;;;;4.73;4.33;;;;;;;11.77;100.00;96466.31;5010651;28;105272;-63
2023/04/30 01:07:50;;;;;;;4.53;4.13;;;;;;;11.77;100.00;96474.31;5027597;28;105660;-63
2023/04/30 01:10:19;;;;;;;4.57;4.17;;;;;;;11.82;100.00;96471.69;5017588;28;101930;-63
2023/04/30 01:12:58;;;;;;;5.03;4.47;;;;;;;11.82;100.00;96471.69;5010539;28;104112;-63
2023/04/30 01:15:32;;;;;;;4.83;4.43;;;;;;;11.81;100.00;96478.06;5011013;28;105795;-63
2023/04/30 01:18:06;;;;;;;4.70;4.23;;;;;;;11.73;100.00;96473.22;5010556;28;101843;-63
2023/04/30 01:20:33;;;;;;;5.30;4.80;;;;;;;11.71;100.00;96483.28;5031356;28;104922;-62
2023/04/30 01:23:14;;;;;;;5.20;4.70;;;;;;;11.57;100.00;96490.09;5030397;28;102212;-63
2023/04/30 01:26:07;;;;;;;4.90;4.50;;;;;;;11.44;100.00;96503.84;5029762;28;104820;-62
2023/04/30 01:28:38;;;;;;;5.40;4.97;;;;;;;11.43;100.00;96499.53;5027842;28;105207;-62
2023/04/30 01:31:12;;;;;;;5.50;5.00;;;;;;;11.43;100.00;96502.19;5030315;28;101994;-62
2023/04/30 01:34:18;;;;;;;5.57;5.07;;;;;;;11.44;100.00;96504.63;5025442;28;105258;-63
2023/04/30 01:36:59;;;;;;;5.40;4.90;;;;;;;11.46;100.00;96499.06;5009636;28;105650;-62
2023/04/30 01:40:01;;;;;;;5.63;5.10;;;;;;;11.40;100.00;96510.72;5020869;28;101894;-63
2023/04/30 01:42:37;;;;;;;5.37;4.90;;;;;;;11.37;100.00;96508.53;5029850;28;103540;-62
2023/04/30 01:48:40;;;;;;;5.77;5.13;;;;;;;11.38;100.00;96518.94;5025538;28;103938;-62
2023/04/30 01:51:15;;;;;;;6.20;5.60;;;;;;;11.43;100.00;96518.19;5009374;28;104341;-63
2023/04/30 01:54:09;;;;;;;5.90;5.30;;;;;;;11.44;100.00;96525.13;5019804;28;101757;-62
2023/04/30 01:56:41;;;;;;;5.80;5.23;;;;;;;11.37;100.00;96524.53;5029902;28;105629;-62
2023/04/30 01:59:09;;;;;;;6.00;5.30;;;;;;;11.37;100.00;96522.66;5027496;28;105735;-62
2023/04/30 02:01:37;;;;;;;6.20;5.60;;;;;;;11.29;100.00;96515.13;5012554;28;101918;-63
2023/04/30 02:04:57;;;;;;;6.30;5.63;;;;;;;11.31;100.00;96520.19;5022368;28;105169;-63
2023/04/30 02:07:39;;;;;;;6.43;5.13;;;;;;;11.38;100.00;96513.63;5028282;28;105907;-62
2023/04/30 02:10:08;;;;;;;7.13;5.20;;;;;;;11.38;100.00;96521.63;5024955;28;101935;-63
2023/04/30 02:12:35;;;;;;;5.47;4.97;;;;;;;11.36;100.00;96518.41;5028904;28;105264;-62
2023/04/30 02:15:06;;;;;;;5.80;5.30;;;;;;;11.38;100.00;96524.28;5029642;28;102053;-62
2023/04/30 02:17:33;;;;;;;5.97;5.37;;;;;;;11.41;100.00;96521.13;5029319;28;104820;-63
2023/04/30 02:20:00;;;;;;;5.43;4.93;;;;;;;11.45;100.00;96524.09;5025157;28;105772;-62
2023/04/30 02:22:28;;;;;;;5.53;5.03;;;;;;;11.48;100.00;96518.22;5029433;28;101929;-63
2023/04/30 02:25:08;;;;;;;5.57;5.07;;;;;;;11.50;100.00;96516.13;5029453;28;105178;-63
2023/04/30 02:27:35;;;;;;;5.03;4.63;;;;;;;11.52;100.00;96509.50;4988505;28;105107;-63
2023/04/30 02:30:03;;;;;;;5.83;5.23;;;;;;;11.54;100.00;96515.38;5012891;28;102214;-63
2023/04/30 02:32:30;;;;;;;4.90;4.50;;;;;;;11.51;100.00;96507.88;5008492;28;105193;-63
2023/04/30 02:34:57;;;;;;;5.40;5.00;;;;;;;11.49;100.00;96511.84;5026969;28;103934;-63
2023/04/30 02:37:24;;;;;;;5.13;4.73;;;;;;;11.47;100.00;96514.78;5028688;28;105026;-62
2023/04/30 02:39:53;;;;;;;5.57;4.70;;;;;;;11.47;100.00;96517.44;5027614;28;105849;-63
2023/04/30 02:42:20;;;;;;;5.60;5.03;;;;;;;11.42;100.00;96524.56;5028995;28;102196;-62
2023/04/30 02:48:09;;;;;;;5.67;5.17;;;;;;;11.38;100.00;96518.13;5024883;28;105629;-62
2023/04/30 02:50:36;;;;;;;5.17;4.70;;;;;;;11.35;100.00;96513.31;5009096;28;101888;-63
2023/04/30 02:56:28;;;;;;;5.17;4.77;;;;;;;11.29;100.00;96509.00;5014535;28;101934;-63
2023/04/30 02:58:55;;;;;;;5.60;5.10;;;;;;;11.29;100.00;96511.69;5019076;28;104774;-63
2023/04/30 03:01:22;;;;;;;6.00;5.50;;;;;;;11.22;100.00;96516.38;5012770;28;105391;-62
2023/04/30 03:04:15;;;;;;;6.17;5.57;;;;;;;11.13;100.00;96515.22;5029098;28;101908;-63
2023/04/30 03:06:42;;;;;;;5.80;5.30;;;;;;;11.00;100.00;96519.09;5028497;28;104969;-63
2023/04/30 03:09:11;;;;;;;7.30;6.60;;;;;;;10.97;100.00;96526.75;5016376;28;104455;-63
2023/04/30 03:11:39;;;;;;;6.77;6.07;;;;;;;10.95;100.00;96524.34;5009925;28;102025;-62
2023/04/30 03:14:34;;;;;;;6.63;6.03;;;;;;;10.99;100.00;96522.81;5008868;28;105182;-62
2023/04/30 03:17:00;;;;;;;6.90;6.10;;;;;;;10.95;100.00;96531.53;5021803;27;105253;-62
2023/04/30 03:19:28;;;;;;;6.37;5.77;;;;;;;10.97;100.00;96524.09;5018719;28;104983;-63
2023/04/30 03:21:55;;;;;;;6.30;5.70;;;;;;;11.02;100.00;96518.84;5012831;28;102607;-62
2023/04/30 03:24:35;;;;;;;6.83;6.10;;;;;;;11.04;100.00;96517.53;5013352;28;101859;-63
2023/04/30 03:27:04;;;;;;;5.40;4.93;;;;;;;11.04;100.00;96524.72;5021309;28;105190;-62
2023/04/30 03:29:30;;;;;;;6.17;5.57;;;;;;;11.01;100.00;96517.25;5018251;28;105621;-63
2023/04/30 03:31:57;;;;;;;5.20;4.80;;;;;;;10.94;100.00;96511.28;5029775;28;101817;-62
2023/04/30 03:34:24;;;;;;;5.63;5.20;;;;;;;10.76;100.00;96515.09;5018319;27;102887;-63
2023/04/30 03:36:51;;;;;;;8.13;6.00;;;;;;;10.66;100.00;96517.63;5011422;28;105414;-63
2023/04/30 03:39:18;;;;;;;6.97;6.27;;;;;;;10.56;100.00;96524.66;5030514;28;101860;-62
2023/04/30 03:41:45;;;;;;;6.27;5.67;;;;;;;10.53;100.00;96527.81;5031437;28;105790;-62
2023/04/30 03:44:30;;;;;;;5.97;5.47;;;;;;;10.47;100.00;96526.94;5018684;28;102314;-63
2023/04/30 03:46:57;;;;;;;6.27;5.77;;;;;;;10.42;100.00;96526.88;5011963;28;103746;-62
2023/04/30 03:49:25;;;;;;;6.80;6.10;;;;;;;10.38;100.00;96536.41;5012276;28;105216;-62
2023/04/30 03:51:52;;;;;;;6.80;6.10;;;;;;;10.34;100.00;96521.16;5011707;28;102297;-62
2023/04/30 03:57:43;;;;;;;6.53;5.80;;;;;;;10.40;100.00;96530.81;5030721;28;105742;-62
2023/04/30 04:00:13;;;;;;;6.70;6.00;;;;;;;10.43;100.00;96536.47;5030693;28;101968;-62
2023/04/30 04:02:47;;;;;;;5.70;5.20;;;;;;;10.45;100.00;96533.53;5019494;28;104817;-62
2023/04/30 04:05:34;;;;;;;5.70;5.20;;;;;;;10.50;100.00;96530.97;5029991;28;101915;-63
2023/04/30 04:08:01;;;;;;;5.97;5.40;;;;;;;10.52;100.00;96523.56;5031695;28;105604;-62
2023/04/30 04:10:29;;;;;;;5.47;4.97;;;;;;;10.54;100.00;96527.59;5029050;28;105095;-62
2023/04/30 04:12:56;;;;;;;6.00;5.40;;;;;;;10.54;100.00;96524.09;5030738;28;103370;-62
2023/04/30 04:15:24;;;;;;;5.93;5.37;;;;;;;10.53;100.00;96525.16;5031154;27;102345;-62
2023/04/30 04:17:51;;;;;;;4.90;4.50;;;;;;;10.55;100.00;96520.38;5030862;28;105935;-63
2023/04/30 04:20:19;;;;;;;5.10;4.70;;;;;;;10.42;100.00;96532.19;5031335;28;101945;-62
2023/04/30 04:22:46;;;;;;;6.23;5.63;;;;;;;10.28;100.00;96528.28;5026038;28;105381;-63
2023/04/30 04:25:14;;;;;;;6.27;5.67;;;;;;;10.30;100.00;96528.84;5014999;28;105286;-62
2023/04/30 04:27:43;;;;;;;6.40;5.80;;;;;;;10.38;100.00;96533.75;4990755;28;104708;-62
2023/04/30 04:30:12;;;;;;;6.50;5.90;;;;;;;10.47;100.00;96547.41;4991616;28;105683;-62
2023/04/30 04:32:47;;;;;;;6.50;5.90;;;;;;;10.42;100.00;96542.81;4999979;28;101835;-63
2023/04/30 04:35:16;;;;;;;6.70;6.10;;;;;;;10.37;100.00;96539.31;5029189;28;105507;-62
2023/04/30 04:37:43;;;;;;;6.20;5.70;;;;;;;10.37;100.00;96545.41;5014576;28;105412;-62
2023/04/30 04:40:11;;;;;;;7.00;6.10;;;;;;;10.35;100.00;96554.69;5011017;28;101969;-63
2023/04/30 04:42:38;;;;;;;6.50;5.83;;;;;;;10.36;100.00;96565.06;5007558;28;104296;-62
2023/04/30 04:45:41;;;;;;;6.57;5.93;;;;;;;10.31;100.00;96559.69;5000791;28;105552;-63
2023/04/30 04:48:10;;;;;;;7.77;6.67;;;;;;;10.23;100.00;96553.97;5011038;28;104819;-63
2023/04/30 04:50:37;;;;;;;6.70;6.10;;;;;;;10.28;100.00;96554.03;5010588;28;104254;-63
2023/04/30 04:53:04;;;;;;;7.27;6.57;;;;;;;10.26;100.00;96550.84;5013262;28;101858;-62
2023/04/30 04:55:30;;;;;;;7.53;6.73;;;;;;;10.29;100.00;96555.66;5028204;28;105188;-62
2023/04/30 04:57:58;;;;;;;7.20;6.47;;;;;;;10.38;100.00;96562.16;5020179;28;105421;-62
2023/04/30 05:00:25;;;;;;;7.00;6.17;;;;;;;10.40;100.00;96552.09;4994072;28;101888;-62
2023/04/30 05:02:52;;;;;;;7.10;6.40;;;;;;;10.44;100.00;96547.91;5019530;28;105743;-62
2023/04/30 05:05:54;;;;;;;8.00;6.80;;;;;;;10.59;100.00;96556.91;5031496;27;102711;-63
2023/04/30 05:08:21;;;;;;;6.97;6.37;;;;;;;10.65;100.00;96555.09;5033930;28;101891;-63
2023/04/30 05:10:48;;;;;;;9.43;7.10;;;;;;;10.67;100.00;96564.44;5030084;28;105579;-62
2023/04/30 05:14:04;;;;;;;7.90;7.10;;;;;;;10.77;100.00;96563.75;5029703;28;101853;-62
2023/04/30 05:16:30;;;;;;;7.53;6.80;;;;;;;10.77;100.00;96561.91;5030399;28;104664;-62
2023/04/30 05:18:57;;;;;;;10.50;6.80;;;;;;;10.81;100.00;96559.56;5027557;28;105153;-62
2023/04/30 05:21:28;;;;;;;6.67;6.00;;;;;;;10.86;100.00;96564.94;5031718;27;102087;-62
2023/04/30 05:23:55;;;;;;;7.30;6.60;;;;;;;10.96;100.00;96565.06;5010346;28;105798;-62
2023/04/30 05:26:22;;;;;;;7.30;6.60;;;;;;;10.90;100.00;96571.38;5009321;28;105508;-62
2023/04/30 05:28:49;;;;;;;7.40;6.10;;;;;;;11.03;100.00;96579.00;5011371;28;101853;-62
2023/04/30 05:31:16;;;;;;;7.33;6.63;;;;;;;11.12;100.00;96585.50;5013012;28;105444;-62
2023/04/30 05:33:52;;;;;;;6.83;6.23;;;;;;;11.20;100.00;96569.88;5009802;28;101970;-62
2023/04/30 05:36:19;;;;;;;6.10;5.60;;;;;;;11.32;100.00;96572.38;5018472;28;105160;-62
2023/04/30 05:38:47;;;;;;;6.90;6.20;;;;;;;11.38;100.00;96576.72;5029684;28;105133;-62
2023/04/30 05:41:14;;;;;;;6.67;6.13;;;;;;;11.43;100.00;96576.75;5010222;28;102008;-62
2023/04/30 05:43:43;;;;;;;6.57;5.97;;;;;;;11.56;100.00;96576.38;5009942;28;105719;-62
2023/04/30 05:46:10;;;;;;;7.13;6.43;;;;;;;11.64;100.00;96573.28;5009333;28;105518;-62
2023/04/30 05:48:37;;;;;;;6.93;6.30;;;;;;;11.81;100.00;96563.31;5009692;28;101939;-62
2023/04/30 05:51:05;;;;;;;6.67;6.00;;;;;;;11.98;100.00;96564.81;5009920;28;105250;-62
2023/04/30 05:54:00;;;;;;;6.57;6.03;;;;;;;12.14;100.00;96561.19;5012607;28;105990;-62
2023/04/30 05:56:27;;;;;;;7.63;6.50;;;;;;;12.04;100.00;96561.13;5026267;28;105165;-62
2023/04/30 05:58:53;;;;;;;6.70;6.10;;;;;;;11.96;100.00;96558.13;5029004;28;105640;-62
2023/04/30 06:01:21;;;;;;;6.47;5.87;;;;;;;12.19;100.00;96560.41;5029708;28;102054;-62
2023/04/30 06:03:55;;;;;;;6.43;5.83;;;;;;;12.42;100.00;96557.41;4989407;28;105138;-62
2023/04/30 06:06:21;;;;;;;6.60;6.00;;;;;;;12.37;100.00;96552.03;4989068;28;105191;-62
2023/04/30 06:08:48;;;;;;;6.63;5.97;;;;;;;12.41;100.00;96550.44;4992812;28;102196;-62
2023/04/30 06:11:17;;;;;;;6.73;6.13;;;;;;;12.39;100.00;96550.72;5009454;28;104222;-62
2023/04/30 06:13:59;;;;;;;9.33;6.07;;;;;;;12.55;100.00;96551.59;5010825;28;105193;-62
2023/04/30 06:16:26;;;;;;;6.90;6.03;;;;;;;12.61;100.00;96555.91;5033014;28;101772;-62
2023/04/30 06:18:53;;;;;;;6.87;6.27;;;;;;;12.89;100.00;96542.97;5029067;28;105520;-62
2023/04/30 06:21:24;;;;;;;6.23;5.63;;;;;;;12.94;100.00;96550.19;5030885;27;101930;-66
2023/04/30 06:23:53;;;;;;;5.90;5.40;;;;;;;13.11;100.00;96545.47;5029111;28;105177;-63
2023/04/30 06:26:23;;;;;;;6.03;5.53;;;;;;;13.40;100.00;96542.09;5029858;27;102942;-63
2023/04/30 06:28:50;;;;;;;5.87;5.37;;;;;;;13.32;100.00;96547.97;5030736;27;101789;-61
2023/04/30 06:31:17;;;;;;;6.10;5.60;;;;;;;13.40;100.00;96538.63;5029121;28;104157;-63
2023/04/30 06:33:51;;;;;;;6.17;5.63;;;;;;;13.21;100.00;96540.97;5028556;28;105342;-63
2023/04/30 06:36:19;;;;;;;5.93;5.40;;;;;;;13.31;100.00;96540.19;5029198;28;101902;-63
2023/04/30 06:38:46;;;;;;;6.60;6.00;;;;;;;12.86;100.00;96548.81;5032187;28;105307;-63
2023/04/30 06:41:13;;;;;;;6.70;6.10;;;;;;;12.62;100.00;96549.50;5029282;28;101925;-63
2023/04/30 06:44:08;;;;;;;6.00;5.50;;;;;;;12.85;100.00;96551.72;5029641;27;102346;-63
2023/04/30 06:46:35;;;;;;;7.67;5.97;;;;;;;13.15;100.00;96552.72;5028187;28;105368;-63
2023/04/30 06:49:02;;;;;;;6.23;5.63;;;;;;;13.33;100.00;96549.56;5012363;28;102032;-63
2023/04/30 06:51:29;;;;;;;6.20;5.60;;;;;;;13.55;100.00;96552.81;5011837;28;104868;-63
2023/04/30 06:54:25;;;;;;;6.13;5.63;;;;;;;13.75;100.00;96557.38;5016363;28;102615;-63
2023/04/30 06:56:52;;;;;;;6.13;5.60;;;;;;;13.74;100.00;96555.78;5030868;28;101740;-63
2023/04/30 06:59:21;;;;;;;6.33;5.73;;;;;;;13.88;100.00;96562.19;5033182;27;102983;-63
2023/04/30 07:01:48;;;;;;;6.10;5.60;;;;;;;14.01;100.00;96557.13;5028664;28;101941;-63
2023/04/30 07:04:24;;;;;;;5.90;5.40;;;;;;;14.04;100.00;96559.28;5028883;28;105106;-63
2023/04/30 07:06:51;;;;;;;6.17;5.53;;;;;;;14.05;100.00;96547.50;5028290;28;105478;-63
2023/04/30 07:09:17;;;;;;;6.13;5.53;;;;;;;14.31;100.00;96549.13;5028989;28;101932;-63
2023/04/30 07:11:45;;;;;;;6.60;6.03;;;;;;;14.89;100.00;96548.44;5011463;28;105453;-63
2023/04/30 07:14:54;;;;;;;6.80;6.10;;;;;;;15.15;100.00;96557.19;5009448;28;102817;-63
2023/04/30 07:17:23;;;;;;;6.60;5.80;;;;;;;15.44;100.00;96550.09;5008703;28;102036;-63
2023/04/30 07:19:50;;;;;;;6.67;6.07;;;;;;;15.50;100.00;96551.66;5025430;28;105404;-63
2023/04/30 07:22:17;;;;;;;7.23;6.50;;;;;;;15.57;100.00;96544.13;5033011;27;102908;-63
2023/04/30 07:24:51;;;;;;;7.70;7.00;;;;;;;15.43;100.00;96551.97;5028359;28;104966;-63
2023/04/30 07:27:18;;;;;;;7.27;6.67;;;;;;;15.62;100.00;96552.13;5027392;28;105416;-63
2023/04/30 07:29:45;;;;;;;6.90;6.30;;;;;;;15.55;100.00;96546.28;5028512;28;102019;-63
2023/04/30 07:32:11;;;;;;;7.33;6.67;;;;;;;15.67;100.00;96549.41;5028378;28;105254;-63
2023/04/30 07:34:42;;;;;;;6.97;6.27;;;;;;;15.61;100.00;96547.84;5026181;28;105200;-63
2023/04/30 07:37:09;;;;;;;7.10;6.50;;;;;;;15.30;100.00;96551.75;5008478;28;101734;-63
2023/04/30 07:39:37;;;;;;;6.53;5.93;;;;;;;15.28;100.00;96560.06;5008544;28;105361;-63
2023/04/30 07:42:04;;;;;;;6.97;6.27;;;;;;;15.23;100.00;96553.94;5013072;28;105450;-63
2023/04/30 07:47:53;;;;;;;6.37;5.77;;;;;;;15.13;100.00;96554.78;5013588;28;102806;-63
2023/04/30 07:50:21;;;;;;;6.37;5.73;;;;;;;15.38;100.00;96551.22;5028384;28;101980;-63
2023/04/30 07:52:49;;;;;;;6.03;5.53;;;;;;;15.51;100.00;96553.28;5028233;28;105211;-63
2023/04/30 07:55:19;;;;;;;6.70;6.10;;;;;;;15.54;100.00;96558.09;5027608;28;105316;-63
2023/04/30 07:57:46;;;;;;;6.17;5.67;;;;;;;15.53;100.00;96556.50;5009102;28;101866;-63
2023/04/30 08:00:14;;;;;;;6.30;5.73;;;;;;;15.77;100.00;96550.16;5008347;28;103736;-63
2023/04/30 08:02:42;;;;;;;6.37;5.70;;;;;;;15.89;100.00;96542.56;5007597;28;105905;-63
2023/04/30 08:05:14;;;;;;;5.90;5.40;;;;;;;15.94;100.00;96547.91;5010289;28;102036;-63
2023/04/30 08:07:43;;;;;;;5.90;5.40;;;;;;;15.93;100.00;96548.97;5014312;28;105209;-63
2023/04/30 08:10:10;;;;;;;5.23;4.83;;;;;;;15.90;100.00;96541.47;5011474;28;101908;-63
2023/04/30 08:12:37;;;;;;;6.07;5.57;;;;;;;15.84;100.00;96549.84;5011293;28;105292;-63
2023/04/30 08:15:15;;;;;;;5.60;5.13;;;;;;;15.87;100.00;96547.38;5028142;28;104496;-63
2023/04/30 08:17:42;;;;;;;5.53;5.03;;;;;;;15.99;100.00;96549.72;5033056;27;101809;-62
2023/04/30 08:20:10;;;;;;;6.33;5.10;;;;;;;16.29;100.00;96544.91;5033008;27;102951;-63
2023/04/30 08:22:38;;;;;;;5.43;4.90;;;;;;;16.34;100.00;96547.53;5032212;27;102527;-62
2023/04/30 08:25:10;;;;;;;5.40;4.90;;;;;;;15.85;100.00;96540.69;5031138;28;101902;-62
2023/04/30 08:27:37;;;;;;;5.07;4.53;;;;;;;15.96;100.00;96536.91;5030964;28;105614;-62
2023/04/30 08:30:05;;;;;;;5.00;4.60;;;;;;;15.78;100.00;96537.53;5034196;28;104387;-62
2023/04/30 08:32:35;;;;;;;5.03;4.63;;;;;;;16.12;100.00;96533.78;5030723;28;104781;-62
2023/04/30 08:35:36;;;;;;;4.70;4.30;;;;;;;16.12;100.00;96543.72;5030682;28;105356;-61
2023/04/30 08:38:02;;;;;;;5.10;4.70;;;;;;;15.88;100.00;96538.28;5019992;28;101891;-67
2023/04/30 08:40:35;;;;;;;5.40;4.50;;;;;;;15.87;100.00;96543.94;5011379;28;105283;-66
2023/04/30 08:43:06;;;;;;;5.23;4.73;;;;;;;16.13;100.00;96532.69;5011770;28;102615;-61
2023/04/30 08:45:33;;;;;;;4.77;4.37;;;;;;;16.06;100.00;96540.28;5011096;28;101956;-60
2023/04/30 08:48:01;;;;;;;4.83;4.33;;;;;;;16.00;100.00;96538.72;5010984;28;105095;-61
2023/04/30 08:50:28;;;;;;;5.03;4.50;;;;;;;16.02;100.00;96541.13;5029151;28;105074;-61
2023/04/30 08:52:55;;;;;;;4.90;4.50;;;;;;;16.44;100.00;96538.63;5034249;28;101811;-60
2023/04/30 08:55:22;;;;;;;4.73;4.13;;;;;;;17.25;100.00;96539.31;5030301;28;105608;-62
2023/04/30 08:57:50;;;;;;;4.10;3.80;;;;;;;17.93;100.00;96535.16;5030884;28;101909;-66
2023/04/30 09:00:17;;;;;;;4.33;3.87;;;;;;;18.04;100.00;96542.00;5030772;28;104803;-63
2023/04/30 09:02:45;;;;;;;4.50;4.10;;;;;;;18.08;100.00;96535.72;5018176;27;103040;-63
2023/04/30 09:05:24;;;;;;;4.63;4.23;;;;;;;18.42;100.00;96535.47;5001318;28;102167;-64
2023/04/30 09:07:51;;;;;;;4.47;4.07;;;;;;;18.05;100.00;96546.28;5003433;28;105723;-66
2023/04/30 09:10:20;;;;;;;3.93;3.63;;;;;;;18.09;100.00;96534.63;5009725;28;105617;-63
2023/04/30 09:13:00;;;;;;;4.17;3.87;;;;;;;18.22;100.00;96547.34;5014700;28;101805;-61
2023/04/30 09:15:28;;;;;;;4.20;3.80;;;;;;;18.52;100.00;96548.75;5003743;28;103074;-60
2023/04/30 09:18:10;;;;;;;4.27;3.87;;;;;;;18.68;100.00;96552.75;5001434;28;102106;-60
2023/04/30 09:20:37;;;;;;;3.83;3.53;;;;;;;18.93;100.00;96545.00;5017405;28;105737;-61
2023/04/30 09:23:54;;;;;;;4.47;4.07;;;;;;;19.05;100.00;96541.81;5008975;28;105384;-61
2023/04/30 09:26:26;;;;;;;4.57;4.17;;;;;;;18.37;100.00;96541.72;5010012;28;101891;-61
2023/04/30 09:28:57;;;;;;;4.93;4.53;;;;;;;18.04;100.00;96536.59;5012847;28;105050;-61
2023/04/30 09:31:25;;;;;;;4.07;3.70;;;;;;;18.17;100.00;96542.03;5006619;28;105864;-61
2023/04/30 09:34:15;;;;;;;4.07;3.77;;;;;;;17.79;100.00;96534.28;5007206;28;103421;-62
2023/04/30 09:36:53;;;;;;;4.00;3.60;;;;;;;18.22;100.00;96533.06;5013012;28;105336;-61
2023/04/30 09:39:20;;;;;;;4.23;3.93;;;;;;;18.33;100.00;96529.97;5011546;28;101688;-62
2023/04/30 09:41:47;;;;;;;3.63;3.40;;;;;;;18.90;100.00;96537.50;5009965;28;105106;-62
2023/04/30 09:44:39;;;;;;;4.20;3.90;;;;;;;18.68;100.00;96537.38;5010508;28;102623;-61
2023/04/30 09:47:12;;;;;;;4.60;4.20;;;;;;;18.30;100.00;96525.13;5018731;28;101835;-61
2023/04/30 09:49:41;;;;;;;4.40;4.03;;;;;;;18.15;100.00;96528.06;5030210;28;105858;-62
2023/04/30 09:52:10;;;;;;;4.80;4.40;;;;;;;18.33;100.00;96529.97;5029120;28;105390;-62
2023/04/30 09:55:10;;;;;;;5.13;4.63;;;;;;;18.30;100.00;96527.00;5030972;27;101879;-62
2023/04/30 09:57:37;;;;;;;4.63;4.30;;;;;;;18.06;100.00;96523.66;5030066;28;105473;-62
2023/04/30 10:00:07;;;;;;;4.50;4.20;;;;;;;17.79;100.00;96518.16;5032445;28;104653;-61
2023/04/30 10:02:37;;;;;;;5.03;4.63;;;;;;;17.84;100.00;96516.19;5027909;28;102178;-61
2023/04/30 10:05:18;;;;;;;5.00;4.60;;;;;;;18.72;100.00;96527.63;5029032;28;105673;-61
2023/04/30 10:07:46;;;;;;;5.20;4.70;;;;;;;19.44;100.00;96525.91;5029713;28;102263;-61
2023/04/30 10:10:14;;;;;;;4.40;4.10;;;;;;;19.38;100.00;96529.81;5017590;28;105448;-61
2023/04/30 10:12:45;;;;;;;5.70;5.20;;;;;;;18.66;100.00;96522.63;5008616;28;105032;-61
2023/04/30 10:15:26;;;;;;;4.50;4.00;;;;;;;18.30;100.00;96518.91;5009543;28;101823;-61
2023/04/30 10:18:01;;;;;;;4.57;4.27;;;;;;;18.88;100.00;96520.03;5009519;28;105229;-61
2023/04/30 10:20:31;;;;;;;3.90;3.60;;;;;;;18.69;100.00;96503.19;5025446;28;105140;-61
2023/04/30 10:22:59;;;;;;;5.07;3.83;;;;;;;18.28;100.00;96505.78;5032747;28;101886;-61
2023/04/30 10:25:27;;;;;;;3.87;3.57;;;;;;;18.63;100.00;96496.28;5028747;28;104258;-61
2023/04/30 10:27:54;;;;;;;4.57;3.50;;;;;;;19.03;100.00;96495.50;5027745;27;101934;-61
2023/04/30 10:30:23;;;;;;;4.00;3.10;;;;;;;19.81;100.00;96495.94;5029300;28;105174;-61
2023/04/30 10:32:57;;;;;;;3.70;3.10;;;;;;;20.42;100.00;96496.06;5028618;28;105563;-61
2023/04/30 10:35:28;;;;;;;3.77;3.47;;;;;;;20.79;95.81;96493.72;5029434;28;101931;-61
2023/04/30 10:37:59;;;;;;;3.80;3.50;;;;;;;20.55;92.63;96484.38;5027903;27;102389;-61
2023/04/30 10:40:27;;;;;;;3.60;3.30;;;;;;;20.92;94.39;96483.94;5009825;28;102518;-61
2023/04/30 10:42:54;;;;;;;3.47;3.27;;;;;;;20.04;100.00;96473.22;5008920;28;101990;-61
2023/04/30 10:45:35;;;;;;;3.23;3.03;;;;;;;19.80;100.00;96480.84;5011825;28;104886;-61
2023/04/30 10:48:02;;;;;;;3.80;3.50;;;;;;;19.78;100.00;96469.56;5010600;28;102068;-61
2023/04/30 10:50:29;;;;;;;3.70;3.40;;;;;;;20.28;100.00;96473.75;5008901;28;105560;-61
2023/04/30 10:53:03;;;;;;;3.40;3.13;;;;;;;19.80;100.00;96475.47;5026617;28;105389;-61
2023/04/30 10:55:30;;;;;;;3.87;3.13;;;;;;;19.29;100.00;96478.50;5029067;28;101995;-61
2023/04/30 10:57:58;;;;;;;3.43;3.20;;;;;;;19.86;100.00;96468.81;5010434;28;104798;-61
2023/04/30 11:00:28;;;;;;;3.20;3.00;;;;;;;20.02;97.86;96456.56;5008137;28;105563;-61
2023/04/30 11:03:03;;;;;;;3.90;3.13;;;;;;;19.84;94.59;96457.56;5009728;28;101772;-61
2023/04/30 11:05:37;;;;;;;2.97;2.77;;;;;;;19.19;100.00;96453.63;5008821;28;103863;-61
2023/04/30 11:08:05;;;;;;;3.00;2.80;;;;;;;19.18;100.00;96471.69;5011128;28;101954;-61
2023/04/30 11:10:34;;;;;;;2.80;2.60;;;;;;;18.96;99.16;96458.16;5009972;28;102339;-61
2023/04/30 11:13:10;;;;;;;3.00;2.80;;;;;;;19.02;98.05;96461.56;5009409;28;102588;-61
2023/04/30 11:15:42;;;;;;;2.50;2.30;;;;;;;19.56;93.60;96451.47;5010144;28;101878;-61
2023/04/30 11:18:09;;;;;;;2.70;2.50;;;;;;;20.26;88.75;96457.03;4990171;28;102365;-61
2023/04/30 11:20:40;;;;;;;2.63;2.53;;;;;;;20.02;85.60;96449.25;4989463;28;102768;-61
2023/04/30 11:23:14;;;;;;;2.43;2.33;;;;;;;19.95;86.46;96456.19;5027581;28;101701;-61
2023/04/30 11:25:42;;;;;;;2.23;2.13;;;;;;;19.75;86.65;96453.97;5028136;28;105340;-62
2023/04/30 11:28:13;;;;;;;2.43;2.23;;;;;;;19.69;86.32;96455.22;5030771;28;106009;-61
2023/04/30 11:30:50;;;;;;;3.00;2.80;;;;;;;19.35;95.57;96452.22;5014131;28;101692;-61
2023/04/30 11:33:21;;;;;;;3.30;3.10;;;;;;;19.25;98.50;96449.75;5007951;28;105893;-61
2023/04/30 11:35:50;;;;;;;3.13;2.90;;;;;;;19.25;100.00;96447.06;5004980;28;103085;-61
2023/04/30 11:38:19;;;;;;;2.90;2.70;;;;;;;18.88;100.00;96445.41;4990226;28;102668;-61
2023/04/30 11:40:48;;;;;;;2.70;2.50;;;;;;;19.15;100.00;96444.56;4992513;28;103103;-61
2023/04/30 11:43:35;;;;;;;2.77;2.60;;;;;;;19.34;87.29;96447.94;5030648;28;102181;-61
2023/04/30 11:46:08;;;;;;;2.97;2.63;;;;;;;19.40;88.14;96438.63;5031753;28;104039;-61
2023/04/30 11:48:36;;;;;;;2.70;2.50;;;;;;;19.89;80.47;96431.22;5032864;28;102649;-61
2023/04/30 11:51:06;;;;;;;2.20;2.10;;;;;;;20.41;76.10;96441.25;5034147;27;101774;-61
2023/04/30 11:53:39;;;;;;;2.67;1.90;;;;;;;20.36;71.10;96433.28;5032273;27;101760;-61
2023/04/30 11:56:07;;;;;;;1.97;1.87;;;;;;;20.25;69.33;96437.34;5030105;28;102133;-61
2023/04/30 11:58:36;;;;;;;2.00;1.90;;;;;;;20.73;72.05;96426.59;5032354;27;102353;-62